Strona główna
METAR-TAF:

METAR-TAF

Lotnisko :

Maringá, Parana, Brazylia

Szerokość geograficzna: 23-25S, Długość geograficzna: 051-57W, wysokość: 542 m

Aktualna obserwacja pogody

Raport powstał 35 minut temu, godzina 01:00 UTC
Wiatr 5 kt od wschodnio-południowy wschód
Temperatura 25°C
Wilgotność 74%
Ciśnienie 1010 hPa
Widzialność 10 km lub więcej
Brak chmur poniżej 1500 m i brak chmur cumulonimbus

METAR: SBMG 210100Z 11005KT CAVOK 25/20 Q1010

czas: 22:35 (01:35 UTC)


TAF: brakujący

Obserwacja i prognoza pogody dla ponad 4000 lotnisk (raport METAR i TAF).

Dostępne stacje oznaczono żółtymi i czerwonymi punktami na mapie.

Najedź kursorem aby zobaczyć nazwę stacji.

Kliknij aby zobaczyć obserwacje i prognozy pogody.

Aby zmienić mapę: kliknij na zielony przycisk z czarnym krzyżykiem, aby powiększyć; na zielony przycisk z myślnikiem, aby pomniejszyć; na zielone strzałki, aby przejść do map sąsiednich.


METAR-TAF: